Farmington, Washington
Current Conditions -  °F | °C
As of 3:53 PM on Monday 22 Dec 2014 (Local Time) from KPUW Reporting Station
Clear Clear  
Wind Chill:   Ceiling: Unl
Heat Index:   Visibility: 10mi
Dew Point: -1°   Wind: 8mph
Humidity: 73%   Direction: 270°W
Pressure: 30.28"   Gusts: NA
Location:  47.09°N, 117.04°W
Report Text: KPUW 222353Z AUTO 27007KT 10SM CLR 03/M01 A3028 RMK AO2 SLP268 T00331011 10061 20033 53017
Loading
Personal Weather Stations






























Interactive Weather Map New forecast layout! Learn more

10-Day Weather Forecast

Advertisements
Track Severe Weather on mobile